Time;durP1;ratioP1;P1;durP2;ratioP2;P2;SDS_P1;SDS_P2;PMS_P1;PMS_P2;Temp;Humidity;BMP_temperature;BMP_pressure;BME280_temperature;BME280_humidity;BME280_pressure;Samples;Min_cycle;Max_cycle;Signal;HPM_P1;HPM_P2
2021/04/21 00:01:40;;;;;;;143.68;60.97;;;4.00;99.90;;;;;;4891701;29;20076;-75
2021/04/21 00:04:08;;;;;;;128.05;56.65;;;3.90;99.90;;;;;;4892980;29;20045;-74
2021/04/21 00:06:37;;;;;;;114.20;53.20;;;3.80;99.90;;;;;;4904205;29;20064;-75
2021/04/21 00:09:05;;;;;;;232.85;67.75;;;3.70;99.90;;;;;;4890123;29;20408;-75
2021/04/21 00:11:33;;;;;;;178.40;62.72;;;3.70;99.90;;;;;;4890742;29;20060;-74
2021/04/21 00:14:00;;;;;;;246.20;74.63;;;3.90;99.90;;;;;;4907520;29;20438;-74
2021/04/21 00:16:28;;;;;;;104.72;49.65;;;3.80;99.90;;;;;;4892484;29;20052;-73
2021/04/21 00:18:56;;;;;;;106.80;49.30;;;3.50;99.90;;;;;;4889055;29;20649;-74
2021/04/21 00:21:24;;;;;;;93.32;46.92;;;3.40;99.90;;;;;;4865692;29;20057;-74
2021/04/21 00:23:51;;;;;;;107.60;49.40;;;3.40;99.90;;;;;;4880085;29;20059;-74
2021/04/21 00:26:21;;;;;;;117.47;50.88;;;3.40;99.90;;;;;;4884330;29;20040;-75
2021/04/21 00:28:48;;;;;;;99.65;47.17;;;3.30;99.90;;;;;;4907158;29;20139;-75
2021/04/21 00:31:15;;;;;;;116.78;51.60;;;3.40;99.90;;;;;;4893234;29;20511;-75
2021/04/21 00:33:45;;;;;;;195.80;62.75;;;3.30;99.90;;;;;;4900727;29;20049;-74
2021/04/21 00:36:14;;;;;;;129.45;54.38;;;3.20;99.90;;;;;;4889759;29;20067;-75
2021/04/21 00:38:41;;;;;;;252.65;67.30;;;3.30;99.90;;;;;;4892690;29;20392;-75
2021/04/21 00:41:28;;;;;;;139.82;55.38;;;3.20;99.90;;;;;;4892797;29;20470;-75
2021/04/21 00:44:40;;;;;;;129.50;54.60;;;3.10;99.90;;;;;;4892351;29;20048;-74
2021/04/21 00:47:18;;;;;;;102.55;47.58;;;3.10;99.90;;;;;;4853499;29;20401;-75
2021/04/21 00:50:07;;;;;;;122.45;50.58;;;3.10;99.90;;;;;;4883798;29;20056;-74
2021/04/21 00:53:00;;;;;;;129.60;52.92;;;3.10;99.90;;;;;;4873380;29;20056;-76
2021/04/21 00:55:35;;;;;;;115.63;49.60;;;3.00;99.90;;;;;;4899221;29;20586;-75
2021/04/21 00:58:11;;;;;;;118.07;49.13;;;3.00;99.90;;;;;;4888490;29;20101;-75
2021/04/21 01:00:44;;;;;;;104.53;48.35;;;2.90;99.90;;;;;;4857047;29;20116;-73
2021/04/21 01:03:13;;;;;;;110.53;48.08;;;2.80;99.90;;;;;;4898595;29;20059;-75
2021/04/21 01:05:50;;;;;;;114.55;51.03;;;2.90;99.90;;;;;;4890701;29;20529;-75
2021/04/21 01:08:23;;;;;;;111.25;49.63;;;2.90;99.90;;;;;;4891331;29;20529;-75
2021/04/21 01:11:01;;;;;;;100.60;44.55;;;2.90;99.90;;;;;;4895561;29;20069;-75
2021/04/21 01:13:35;;;;;;;100.50;45.10;;;2.80;99.90;;;;;;4884451;29;20053;-75
2021/04/21 01:16:04;;;;;;;112.32;49.30;;;2.70;99.90;;;;;;4885906;29;20135;-74
2021/04/21 01:18:31;;;;;;;113.65;49.25;;;2.80;99.90;;;;;;4906146;29;20507;-74
2021/04/21 01:21:05;;;;;;;121.80;49.75;;;2.80;99.90;;;;;;4882275;29;20059;-75
2021/04/21 01:23:32;;;;;;;128.80;53.85;;;2.80;99.90;;;;;;4877724;29;20049;-75
2021/04/21 01:26:25;;;;;;;119.63;51.30;;;2.90;99.90;;;;;;4886027;29;20048;-75
2021/04/21 01:28:55;;;;;;;128.27;53.65;;;2.90;99.90;;;;;;4899372;29;20049;-75
2021/04/21 01:31:23;;;;;;;103.20;47.03;;;2.80;99.90;;;;;;4891614;29;20057;-75
2021/04/21 01:33:52;;;;;;;99.78;46.72;;;2.80;99.90;;;;;;4857875;29;20060;-75
2021/04/21 01:36:23;;;;;;;116.82;46.67;;;2.70;99.90;;;;;;4880502;29;20057;-75
2021/04/21 01:38:51;;;;;;;96.22;45.05;;;2.70;99.90;;;;;;4890549;29;20063;-75
2021/04/21 01:41:23;;;;;;;90.75;39.83;;;2.60;99.90;;;;;;4875382;29;20057;-74
2021/04/21 01:44:06;;;;;;;84.07;39.80;;;2.50;99.90;;;;;;4869121;29;20440;-76
2021/04/21 01:46:38;;;;;;;97.82;44.60;;;2.50;99.90;;;;;;4889828;29;20052;-75
2021/04/21 01:49:21;;;;;;;99.72;43.67;;;2.60;99.90;;;;;;4891169;29;20064;-74
2021/04/21 01:51:55;;;;;;;108.47;43.38;;;2.60;99.90;;;;;;4883869;29;20061;-74
2021/04/21 01:54:27;;;;;;;103.90;43.60;;;2.70;99.90;;;;;;4881402;29;20057;-74
2021/04/21 01:57:21;;;;;;;104.15;41.97;;;2.70;99.90;;;;;;4884393;29;20048;-74
2021/04/21 01:59:55;;;;;;;98.85;40.63;;;2.70;99.90;;;;;;4887588;29;20091;-74
2021/04/21 02:02:28;;;;;;;104.63;42.67;;;2.80;99.90;;;;;;4871449;29;20053;-74
2021/04/21 02:05:16;;;;;;;79.28;36.50;;;2.60;99.90;;;;;;4875148;29;20389;-74
2021/04/21 02:08:03;;;;;;;86.80;38.72;;;2.50;99.90;;;;;;4874168;29;20059;-74
2021/04/21 02:10:40;;;;;;;85.75;37.63;;;2.30;99.90;;;;;;4872089;29;20053;-75
2021/04/21 02:13:34;;;;;;;82.57;38.80;;;2.30;99.90;;;;;;4872194;29;20061;-75
2021/04/21 02:16:21;;;;;;;86.82;37.13;;;2.40;99.90;;;;;;4895783;29;20128;-74
2021/04/21 02:19:01;;;;;;;83.85;36.22;;;2.30;99.90;;;;;;4889903;29;20049;-74
2021/04/21 02:22:02;;;;;;;79.38;37.05;;;2.30;99.90;;;;;;4905894;29;20048;-75
2021/04/21 02:24:50;;;;;;;86.95;36.00;;;2.20;99.90;;;;;;4874890;29;20049;-73
2021/04/21 02:27:58;;;;;;;75.82;35.47;;;2.30;99.90;;;;;;4897104;29;20087;-74
2021/04/21 02:30:46;;;;;;;87.75;36.30;;;2.40;99.90;;;;;;4856498;29;20061;-74
2021/04/21 02:33:37;;;;;;;96.45;39.33;;;2.40;99.90;;;;;;4884188;29;20052;-74
2021/04/21 02:36:11;;;;;;;88.00;38.72;;;2.40;99.90;;;;;;4889512;29;20054;-74
2021/04/21 02:38:51;;;;;;;88.88;40.65;;;2.40;99.90;;;;;;4891738;29;20053;-74
2021/04/21 02:41:32;;;;;;;87.85;36.20;;;2.20;99.90;;;;;;4884719;29;20049;-75
2021/04/21 02:44:15;;;;;;;86.18;36.92;;;2.20;99.90;;;;;;4883735;29;20048;-74
2021/04/21 02:47:16;;;;;;;83.93;36.55;;;2.10;99.90;;;;;;4889034;29;20051;-74
2021/04/21 02:50:05;;;;;;;76.32;36.55;;;2.10;99.90;;;;;;4888299;29;20056;-74
2021/04/21 02:52:53;;;;;;;72.82;34.50;;;2.10;99.90;;;;;;4874156;29;20044;-74
2021/04/21 02:55:57;;;;;;;87.47;37.95;;;2.00;99.90;;;;;;4880318;29;20049;-74
2021/04/21 02:58:43;;;;;;;96.45;40.30;;;2.10;99.90;;;;;;4874039;29;20053;-75
2021/04/21 03:01:31;;;;;;;76.88;37.78;;;2.10;99.90;;;;;;4871431;29;20053;-74
2021/04/21 03:04:13;;;;;;;91.50;40.58;;;2.00;99.90;;;;;;4871672;29;20113;-74
2021/04/21 03:06:44;;;;;;;93.25;41.22;;;2.20;99.90;;;;;;4863108;29;20455;-74
2021/04/21 03:09:13;;;;;;;97.65;40.75;;;2.20;99.90;;;;;;4890480;29;20061;-73
2021/04/21 03:11:41;;;;;;;109.53;43.25;;;2.10;99.90;;;;;;4890400;29;20053;-75
2021/04/21 03:14:20;;;;;;;104.07;43.17;;;2.20;99.90;;;;;;4891758;29;20104;-74
2021/04/21 03:16:57;;;;;;;89.13;39.95;;;2.20;99.90;;;;;;4890590;29;20162;-74
2021/04/21 03:19:28;;;;;;;101.40;41.90;;;1.90;99.90;;;;;;4889578;29;20186;-74
2021/04/21 03:22:00;;;;;;;115.70;45.22;;;2.00;99.90;;;;;;4900481;29;20055;-73
2021/04/21 03:24:31;;;;;;;109.18;43.30;;;1.90;99.90;;;;;;4869730;29;20051;-75
2021/04/21 03:27:03;;;;;;;124.43;46.45;;;1.80;99.90;;;;;;4873859;29;20129;-74
2021/04/21 03:29:39;;;;;;;115.80;44.13;;;1.70;99.90;;;;;;4890535;29;20084;-74
2021/04/21 03:32:10;;;;;;;108.15;43.88;;;1.90;99.90;;;;;;4891284;29;20060;-75
2021/04/21 03:34:39;;;;;;;100.72;41.72;;;1.80;99.90;;;;;;4883352;29;20096;-75
2021/04/21 03:37:21;;;;;;;100.07;39.92;;;1.80;99.90;;;;;;4899947;29;20053;-74
2021/04/21 03:39:50;;;;;;;86.43;37.40;;;1.60;99.90;;;;;;4882643;29;20049;-74
2021/04/21 03:42:16;;;;;;;83.80;37.17;;;1.60;99.90;;;;;;4874854;29;20056;-74
2021/04/21 03:44:43;;;;;;;94.13;40.42;;;1.60;99.90;;;;;;4879263;29;20067;-75
2021/04/21 03:47:10;;;;;;;104.38;43.22;;;1.60;99.90;;;;;;4879497;29;20049;-75
2021/04/21 03:49:37;;;;;;;99.60;42.72;;;1.60;99.90;;;;;;4883727;29;20083;-74
2021/04/21 03:52:06;;;;;;;110.78;43.90;;;1.60;99.90;;;;;;4879635;29;20044;-75
2021/04/21 03:54:34;;;;;;;103.30;44.15;;;1.70;99.90;;;;;;4900328;29;20052;-75
2021/04/21 03:57:02;;;;;;;103.80;45.08;;;1.60;99.90;;;;;;4889631;29;20053;-75
2021/04/21 03:59:30;;;;;;;105.35;43.42;;;1.50;99.90;;;;;;4885746;29;20041;-75
2021/04/21 04:02:01;;;;;;;128.48;49.42;;;1.50;99.90;;;;;;4883483;29;20048;-72
2021/04/21 04:04:31;;;;;;;96.03;42.00;;;1.50;99.90;;;;;;4879481;29;20057;-71
2021/04/21 04:07:08;;;;;;;105.18;43.83;;;1.50;99.90;;;;;;4899968;29;20660;-72
2021/04/21 04:09:37;;;;;;;99.13;41.70;;;1.60;99.90;;;;;;4876841;29;20053;-72
2021/04/21 04:12:05;;;;;;;102.47;45.22;;;1.50;99.90;;;;;;4890727;29;20048;-75
2021/04/21 04:14:34;;;;;;;125.18;49.25;;;1.60;99.90;;;;;;4906801;29;20063;-72
2021/04/21 04:17:03;;;;;;;127.97;49.10;;;1.60;99.90;;;;;;4891465;29;20049;-72
2021/04/21 04:19:35;;;;;;;114.82;49.50;;;1.70;99.90;;;;;;4891644;29;20052;-71
2021/04/21 04:22:16;;;;;;;124.40;48.65;;;1.80;99.90;;;;;;4882056;29;20082;-72
2021/04/21 04:24:49;;;;;;;125.43;49.20;;;1.80;99.90;;;;;;4890607;29;20063;-72
2021/04/21 04:27:22;;;;;;;117.55;47.25;;;1.70;99.90;;;;;;4875818;29;20078;-72
2021/04/21 04:29:50;;;;;;;120.60;49.50;;;1.80;99.90;;;;;;4893622;29;20086;-71
2021/04/21 04:32:18;;;;;;;129.18;50.55;;;1.70;99.90;;;;;;4902646;29;20400;-71
2021/04/21 04:34:48;;;;;;;118.85;45.58;;;1.70;99.90;;;;;;4852499;29;20452;-71
2021/04/21 04:37:17;;;;;;;91.72;43.97;;;1.60;99.90;;;;;;4862073;29;20458;-71
2021/04/21 04:39:44;;;;;;;128.63;52.63;;;1.60;99.90;;;;;;4868215;29;20692;-72
2021/04/21 04:42:12;;;;;;;166.77;64.47;;;1.80;99.90;;;;;;4867896;29;20053;-71
2021/04/21 04:44:45;;;;;;;134.35;55.60;;;2.00;99.90;;;;;;4838303;29;20088;-72
2021/04/21 04:47:28;;;;;;;174.63;67.97;;;2.00;99.90;;;;;;4885979;29;20048;-72
2021/04/21 04:50:02;;;;;;;139.55;55.67;;;2.00;99.90;;;;;;4858271;29;20712;-72
2021/04/21 04:52:32;;;;;;;121.35;49.47;;;2.00;99.90;;;;;;4880349;29;20078;-71
2021/04/21 04:55:00;;;;;;;105.70;45.95;;;1.90;99.90;;;;;;4862081;29;20226;-72
2021/04/21 04:57:30;;;;;;;99.45;43.42;;;1.90;99.90;;;;;;4880852;29;20056;-71
2021/04/21 05:00:02;;;;;;;103.70;46.65;;;1.80;99.90;;;;;;4891775;29;20055;-72
2021/04/21 05:02:33;;;;;;;139.70;56.75;;;1.80;99.90;;;;;;4891033;29;20073;-71
2021/04/21 05:05:04;;;;;;;163.00;61.85;;;2.00;99.90;;;;;;4865715;29;20655;-71
2021/04/21 05:07:39;;;;;;;121.15;51.03;;;2.10;99.90;;;;;;4888975;29;20049;-72
2021/04/21 05:10:15;;;;;;;149.77;60.20;;;2.00;99.90;;;;;;4888983;29;20060;-71
2021/04/21 05:12:43;;;;;;;132.68;55.67;;;2.10;99.90;;;;;;4889028;29;20056;-71
2021/04/21 05:15:38;;;;;;;128.20;54.83;;;2.10;99.90;;;;;;4886668;29;20052;-72
2021/04/21 05:18:17;;;;;;;130.80;54.08;;;2.10;99.90;;;;;;4883763;29;20060;-72
2021/04/21 05:21:17;;;;;;;121.80;52.83;;;2.10;99.90;;;;;;4895023;29;20397;-72
2021/04/21 05:24:17;;;;;;;147.07;59.75;;;2.20;99.90;;;;;;4846823;29;20048;-71
2021/04/21 05:26:49;;;;;;;144.43;60.42;;;2.20;99.90;;;;;;4854695;29;20053;-72
2021/04/21 05:29:49;;;;;;;139.38;57.58;;;2.30;99.90;;;;;;4872698;29;20567;-72
2021/04/21 05:32:42;;;;;;;151.50;60.95;;;2.40;99.90;;;;;;4900913;29;20431;-72
2021/04/21 05:35:14;;;;;;;147.30;63.15;;;2.50;99.90;;;;;;4872143;29;20132;-72
2021/04/21 05:38:18;;;;;;;183.35;70.05;;;2.60;99.90;;;;;;4887843;29;20523;-71
2021/04/21 05:41:15;;;;;;;161.48;68.47;;;2.70;99.90;;;;;;4875424;29;20579;-71
2021/04/21 05:44:23;;;;;;;163.63;67.65;;;2.80;99.90;;;;;;4873972;29;20060;-71
2021/04/21 05:47:22;;;;;;;192.68;75.25;;;2.80;99.90;;;;;;4885484;29;20112;-72
2021/04/21 05:49:51;;;;;;;201.90;79.72;;;3.00;99.90;;;;;;4885636;29;20132;-72
2021/04/21 05:52:53;;;;;;;210.30;81.35;;;3.20;99.90;;;;;;4901050;29;20041;-73
2021/04/21 05:55:28;;;;;;;196.13;76.15;;;3.40;99.90;;;;;;4880131;29;20063;-72
2021/04/21 05:58:17;;;;;;;168.13;71.53;;;3.60;99.90;;;;;;4869510;29;20060;-72
2021/04/21 06:01:22;;;;;;;181.27;74.43;;;3.70;99.90;;;;;;4871009;29;20055;-73
2021/04/21 06:03:52;;;;;;;184.07;77.70;;;3.90;99.90;;;;;;4872579;29;20299;-73
2021/04/21 06:06:18;;;;;;;174.38;75.45;;;4.00;99.90;;;;;;4901080;29;20056;-73
2021/04/21 06:08:45;;;;;;;182.30;76.60;;;4.10;99.90;;;;;;4871435;29;20152;-73
2021/04/21 06:11:25;;;;;;;158.32;71.97;;;4.20;99.90;;;;;;4871640;29;20476;-73
2021/04/21 06:13:54;;;;;;;188.30;76.45;;;4.30;99.90;;;;;;4883977;29;20067;-72
2021/04/21 06:16:22;;;;;;;185.15;78.40;;;4.40;99.90;;;;;;4890231;29;20048;-73
2021/04/21 06:18:52;;;;;;;170.25;78.15;;;4.60;99.90;;;;;;4885574;29;20057;-73
2021/04/21 06:21:20;;;;;;;171.13;79.03;;;4.70;99.90;;;;;;4876911;29;20055;-73
2021/04/21 06:23:46;;;;;;;171.82;76.47;;;4.90;99.90;;;;;;4880998;29;20037;-72
2021/04/21 06:26:22;;;;;;;184.68;83.00;;;5.00;99.90;;;;;;4905364;29;20048;-73
2021/04/21 06:29:08;;;;;;;177.38;76.63;;;5.20;99.90;;;;;;4905772;29;20677;-73
2021/04/21 06:31:43;;;;;;;159.07;77.70;;;5.40;99.90;;;;;;4889488;29;20423;-72
2021/04/21 06:34:12;;;;;;;163.98;77.45;;;5.60;99.90;;;;;;4884424;29;20523;-73
2021/04/21 06:36:47;;;;;;;139.38;71.78;;;5.90;99.90;;;;;;4885444;29;20143;-72
2021/04/21 06:39:17;;;;;;;126.32;66.43;;;6.20;99.90;;;;;;4886127;29;20147;-73
2021/04/21 06:41:44;;;;;;;109.13;62.72;;;6.50;99.90;;;;;;4884484;29;20045;-73
2021/04/21 06:44:14;;;;;;;100.60;60.95;;;6.90;99.90;;;;;;4874112;29;20508;-72
2021/04/21 06:46:41;;;;;;;81.50;51.42;;;7.30;99.90;;;;;;4870862;29;20055;-73
2021/04/21 06:49:07;;;;;;;63.90;45.58;;;7.80;99.90;;;;;;4880249;29;20412;-72
2021/04/21 06:51:35;;;;;;;67.63;42.67;;;8.30;99.90;;;;;;4881914;29;20055;-73
2021/04/21 06:54:06;;;;;;;66.38;46.08;;;8.70;99.90;;;;;;4879220;29;20056;-73
2021/04/21 06:56:36;;;;;;;61.22;42.90;;;8.90;99.90;;;;;;4888562;29;20064;-73
2021/04/21 06:59:03;;;;;;;65.85;45.15;;;9.30;99.90;;;;;;4888825;29;20136;-74
2021/04/21 07:01:30;;;;;;;66.55;47.13;;;9.70;99.90;;;;;;4889792;29;20624;-74
2021/04/21 07:04:17;;;;;;;64.15;47.53;;;10.00;99.90;;;;;;4891853;29;20053;-74
2021/04/21 07:06:49;;;;;;;65.85;45.63;;;10.30;99.90;;;;;;4889043;29;20136;-74
2021/04/21 07:09:22;;;;;;;71.78;50.60;;;10.50;99.90;;;;;;4892227;29;20053;-74
2021/04/21 07:12:00;;;;;;;73.72;52.33;;;10.70;99.90;;;;;;4891232;29;20143;-73
2021/04/21 07:14:28;;;;;;;70.47;50.03;;;11.10;99.90;;;;;;4891599;29;20687;-74
2021/04/21 07:16:56;;;;;;;68.78;49.30;;;11.30;99.90;;;;;;4889129;29;20056;-74
2021/04/21 07:19:24;;;;;;;61.53;48.00;;;11.50;99.90;;;;;;4889518;29;20045;-74
2021/04/21 07:21:53;;;;;;;68.78;50.22;;;11.80;99.90;;;;;;4877823;29;20041;-74
2021/04/21 07:24:28;;;;;;;66.18;48.17;;;12.00;99.90;;;;;;4888466;29;20131;-74
2021/04/21 07:26:55;;;;;;;68.25;47.30;;;12.30;99.90;;;;;;4874096;29;20045;-74
2021/04/21 07:29:24;;;;;;;63.22;47.63;;;12.40;99.90;;;;;;4891081;29;20068;-74
2021/04/21 07:31:51;;;;;;;61.85;46.85;;;12.50;99.90;;;;;;4905201;29;20068;-73
2021/04/21 07:34:34;;;;;;;74.05;52.60;;;12.60;99.90;;;;;;4896080;29;20080;-74
2021/04/21 07:37:01;;;;;;;60.83;46.67;;;13.00;99.90;;;;;;4874182;29;20052;-75
2021/04/21 07:39:36;;;;;;;55.85;45.45;;;13.40;99.90;;;;;;4883437;29;20048;-74
2021/04/21 07:42:23;;;;;;;58.92;44.15;;;13.60;99.90;;;;;;4887492;29;20556;-71
2021/04/21 07:44:51;;;;;;;53.28;43.35;;;14.00;99.90;;;;;;4879517;29;20052;-72
2021/04/21 07:47:21;;;;;;;57.20;45.53;;;14.30;99.90;;;;;;4874270;29;20105;-73
2021/04/21 07:49:58;;;;;;;50.97;43.63;;;14.50;99.90;;;;;;4904148;29;20052;-72
2021/04/21 07:52:30;;;;;;;52.05;42.25;;;14.50;99.90;;;;;;4880388;29;20057;-72
2021/04/21 07:55:18;;;;;;;47.10;39.92;;;14.60;99.90;;;;;;4903162;29;20056;-73
2021/04/21 07:57:57;;;;;;;54.45;43.05;;;14.90;99.90;;;;;;4888627;29;20064;-73
2021/04/21 08:00:28;;;;;;;47.78;41.03;;;15.00;99.90;;;;;;4858564;29;20780;-72
2021/04/21 08:02:56;;;;;;;48.88;43.13;;;15.10;99.90;;;;;;4874714;29;20116;-72
2021/04/21 08:05:23;;;;;;;46.55;39.72;;;15.30;99.90;;;;;;4889205;29;20067;-73
2021/04/21 08:07:58;;;;;;;39.58;35.40;;;15.40;99.90;;;;;;4889603;29;20498;-73
2021/04/21 08:10:30;;;;;;;40.60;36.33;;;15.60;99.90;;;;;;4892657;29;20056;-72
2021/04/21 08:12:58;;;;;;;41.28;36.80;;;15.60;99.90;;;;;;4893965;29;20053;-73
2021/04/21 08:15:37;;;;;;;39.20;35.35;;;15.60;99.90;;;;;;4892503;29;20051;-73
2021/04/21 08:18:09;;;;;;;40.08;33.83;;;15.70;99.90;;;;;;4893934;29;20535;-72
2021/04/21 08:20:43;;;;;;;40.38;36.13;;;15.70;99.90;;;;;;4886411;29;20060;-72
2021/04/21 08:23:31;;;;;;;37.38;32.72;;;15.90;99.90;;;;;;4868798;29;20427;-73
2021/04/21 08:25:58;;;;;;;32.75;29.27;;;16.10;99.90;;;;;;4876553;29;20052;-72
2021/04/21 08:28:24;;;;;;;30.45;27.42;;;16.20;99.90;;;;;;4877950;29;20687;-73
2021/04/21 08:30:59;;;;;;;29.20;26.42;;;16.30;99.90;;;;;;4892808;29;20072;-72
2021/04/21 08:33:26;;;;;;;31.17;27.80;;;16.30;99.90;;;;;;4887999;29;20088;-73
2021/04/21 08:35:53;;;;;;;37.40;31.17;;;16.10;99.90;;;;;;4874015;29;20057;-72
2021/04/21 08:38:19;;;;;;;31.35;28.23;;;16.00;99.90;;;;;;4869432;29;20496;-71
2021/04/21 08:40:45;;;;;;;31.60;27.98;;;15.80;99.90;;;;;;4891035;29;20052;-72
2021/04/21 08:43:15;;;;;;;31.13;27.45;;;15.80;99.90;;;;;;4889574;29;20061;-71
2021/04/21 08:45:42;;;;;;;31.10;27.73;;;15.90;99.90;;;;;;4880419;29;20053;-72
2021/04/21 08:48:12;;;;;;;32.85;29.65;;;15.90;99.90;;;;;;4891877;29;20511;-72
2021/04/21 08:50:39;;;;;;;33.53;29.98;;;16.10;99.90;;;;;;4892742;29;20093;-72
2021/04/21 08:53:08;;;;;;;30.40;27.48;;;16.30;99.90;;;;;;4886440;29;20147;-74
2021/04/21 08:55:36;;;;;;;27.50;24.63;;;16.30;99.90;;;;;;4882820;29;20057;-74
2021/04/21 08:58:04;;;;;;;26.80;24.23;;;16.50;99.90;;;;;;4897643;29;20056;-73
2021/04/21 09:00:30;;;;;;;25.75;23.23;;;16.40;99.90;;;;;;4873599;29;20056;-74
2021/04/21 09:03:00;;;;;;;24.30;22.15;;;16.30;99.90;;;;;;4874575;29;20623;-73
2021/04/21 09:05:26;;;;;;;24.58;22.00;;;16.10;99.90;;;;;;4873053;29;20148;-73
2021/04/21 09:07:53;;;;;;;24.00;21.70;;;16.20;99.90;;;;;;4872890;29;20063;-72
2021/04/21 09:10:19;;;;;;;23.45;21.17;;;16.20;99.90;;;;;;4857032;29;20424;-73
2021/04/21 09:12:47;;;;;;;24.08;21.90;;;16.30;99.90;;;;;;4871628;29;20064;-73
2021/04/21 09:15:14;;;;;;;26.35;23.65;;;16.30;99.90;;;;;;4878104;29;20415;-73
2021/04/21 09:17:46;;;;;;;21.98;20.08;;;16.40;99.90;;;;;;4883570;29;20531;-73
2021/04/21 09:20:18;;;;;;;22.08;19.95;;;16.50;99.90;;;;;;4880312;29;20049;-73
2021/04/21 09:23:11;;;;;;;20.98;19.23;;;16.50;99.90;;;;;;4903774;29;20054;-74
2021/04/21 09:25:42;;;;;;;21.60;19.80;;;16.50;99.90;;;;;;4891810;29;20053;-73
2021/04/21 09:28:09;;;;;;;21.60;19.80;;;16.80;99.90;;;;;;4891470;29;20139;-73
2021/04/21 09:30:37;;;;;;;22.17;20.23;;;16.80;99.00;;;;;;4891317;29;20057;-73
2021/04/21 09:33:05;;;;;;;24.67;22.15;;;16.90;99.90;;;;;;4886374;29;20113;-73
2021/04/21 09:35:37;;;;;;;23.08;20.73;;;17.00;97.40;;;;;;4873610;29;20049;-74
2021/04/21 09:38:24;;;;;;;23.65;21.50;;;17.10;98.00;;;;;;4875025;29;20068;-75
2021/04/21 09:40:53;;;;;;;23.75;21.65;;;17.20;99.80;;;;;;4872087;29;20161;-74
2021/04/21 09:43:26;;;;;;;23.20;21.00;;;17.20;99.90;;;;;;4889656;29;20143;-73
2021/04/21 09:45:58;;;;;;;21.10;19.35;;;17.20;99.90;;;;;;4870208;29;20413;-74
2021/04/21 09:48:27;;;;;;;21.42;19.20;;;17.20;98.50;;;;;;4875828;29;20061;-73
2021/04/21 09:51:08;;;;;;;21.73;19.95;;;16.70;95.60;;;;;;4882310;29;20052;-73
2021/04/21 09:53:40;;;;;;;21.67;19.70;;;16.30;94.90;;;;;;4892738;29;20064;-71
2021/04/21 09:56:19;;;;;;;21.90;19.42;;;16.30;96.10;;;;;;4889540;29;20064;-73
2021/04/21 09:58:48;;;;;;;22.27;20.58;;;16.50;95.20;;;;;;4892311;29;20078;-74
2021/04/21 10:01:31;;;;;;;24.30;22.20;;;16.00;99.10;;;;;;4883537;29;20388;-74
2021/04/21 10:04:12;;;;;;;23.17;21.15;;;15.90;99.90;;;;;;4885549;29;20117;-73
2021/04/21 10:06:50;;;;;;;20.92;19.15;;;16.00;98.40;;;;;;4887641;29;20055;-74
2021/04/21 10:09:26;;;;;;;21.98;19.95;;;16.10;95.70;;;;;;4890769;29;20048;-74
2021/04/21 10:12:16;;;;;;;23.67;21.50;;;16.30;96.70;;;;;;4889849;29;20048;-73
2021/04/21 10:14:44;;;;;;;21.42;19.73;;;16.60;97.00;;;;;;4891059;29;20061;-73
2021/04/21 10:17:12;;;;;;;21.30;19.55;;;17.10;95.50;;;;;;4891170;29;20423;-74
2021/04/21 10:19:39;;;;;;;21.58;19.52;;;17.30;93.50;;;;;;4904749;29;20063;-74
2021/04/21 10:22:06;;;;;;;21.73;19.80;;;17.00;94.80;;;;;;4899025;29;20056;-73
2021/04/21 10:24:32;;;;;;;19.52;17.75;;;17.20;96.70;;;;;;4905157;29;20056;-74
2021/04/21 10:26:59;;;;;;;19.08;17.30;;;17.30;91.10;;;;;;4905762;29;20060;-75
2021/04/21 10:29:25;;;;;;;18.58;17.17;;;17.50;90.80;;;;;;4876243;29;20056;-76
2021/04/21 10:31:53;;;;;;;17.17;15.80;;;17.40;88.10;;;;;;4871803;29;20064;-76
2021/04/21 10:34:23;;;;;;;17.90;16.35;;;17.40;82.10;;;;;;4869070;29;20503;-75
2021/04/21 10:36:53;;;;;;;16.75;15.32;;;16.50;80.60;;;;;;4900043;29;20067;-77
2021/04/21 10:39:36;;;;;;;16.35;15.02;;;16.70;84.50;;;;;;4889208;29;20060;-76
2021/04/21 10:42:09;;;;;;;17.90;16.40;;;17.40;81.80;;;;;;4886068;29;20072;-76
2021/04/21 10:44:37;;;;;;;19.08;17.67;;;17.50;78.30;;;;;;4899052;29;20483;-77
2021/04/21 10:47:10;;;;;;;17.80;16.40;;;17.30;81.70;;;;;;4893420;29;20062;-76
2021/04/21 10:50:00;;;;;;;18.92;17.45;;;17.30;82.50;;;;;;4904882;29;20049;-76
2021/04/21 10:52:27;;;;;;;17.40;16.00;;;17.50;81.30;;;;;;4892146;29;20076;-78
2021/04/21 10:54:55;;;;;;;16.92;15.40;;;17.60;84.00;;;;;;4896444;29;20065;-75
2021/04/21 10:57:22;;;;;;;17.25;15.82;;;17.80;79.50;;;;;;4891011;29;20127;-75
2021/04/21 11:00:10;;;;;;;17.65;16.25;;;18.00;80.70;;;;;;4875168;29;20041;-76
2021/04/21 11:02:40;;;;;;;18.77;17.20;;;17.90;79.10;;;;;;4875012;29;20067;-75
2021/04/21 11:05:12;;;;;;;18.83;17.27;;;18.00;80.80;;;;;;4906527;29;20053;-78
2021/04/21 11:07:40;;;;;;;18.30;16.90;;;17.60;78.50;;;;;;4866293;29;20063;-76
2021/04/21 11:10:09;;;;;;;18.52;16.80;;;17.70;81.10;;;;;;4886860;29;20049;-78
2021/04/21 11:12:51;;;;;;;17.13;15.70;;;17.70;79.50;;;;;;4884712;29;20770;-77
2021/04/21 11:15:46;;;;;;;17.85;16.42;;;18.00;82.20;;;;;;4888841;29;20044;-75
2021/04/21 11:18:15;;;;;;;19.40;17.40;;;17.60;81.20;;;;;;4893897;29;20458;-78
2021/04/21 11:20:48;;;;;;;19.80;18.27;;;17.10;80.70;;;;;;4884121;29;20140;-77
2021/04/21 11:29:03;;;;;;;19.23;17.55;;;17.70;81.60;;;;;;4934059;29;20037;-73
2021/04/21 11:31:45;;;;;;;19.40;17.90;;;17.70;81.10;;;;;;4918489;29;20095;-72
2021/04/21 11:34:28;;;;;;;18.55;16.80;;;16.80;84.10;;;;;;4908629;29;20052;-73
2021/04/21 11:36:56;;;;;;;18.95;17.33;;;17.00;84.80;;;;;;4900965;29;20057;-73
2021/04/21 11:39:41;;;;;;;19.60;17.95;;;17.40;82.60;;;;;;4902083;29;20109;-73
2021/04/21 11:42:21;;;;;;;21.55;19.85;;;17.90;82.00;;;;;;4915914;29;20063;-72
2021/04/21 11:44:51;;;;;;;20.80;19.00;;;17.90;78.20;;;;;;4930475;28;20032;-72
2021/04/21 11:47:42;;;;;;;20.58;18.80;;;18.20;80.90;;;;;;4915784;29;20052;-72
2021/04/21 11:50:17;;;;;;;21.27;19.05;;;17.40;82.30;;;;;;4912912;29;20065;-72
2021/04/21 11:53:07;;;;;;;20.02;18.42;;;17.50;81.40;;;;;;4902102;29;20032;-73
2021/04/21 11:56:05;;;;;;;18.73;17.20;;;17.70;84.10;;;;;;4916719;29;20116;-74
2021/04/21 11:58:38;;;;;;;20.02;18.42;;;17.60;81.80;;;;;;4902321;29;20053;-76
2021/04/21 12:01:07;;;;;;;20.40;18.42;;;17.60;81.20;;;;;;4877813;29;20070;-76
2021/04/21 12:03:41;;;;;;;20.15;18.45;;;17.30;80.90;;;;;;4894452;29;20057;-76
2021/04/21 12:06:09;;;;;;;20.33;18.58;;;17.40;83.70;;;;;;4891531;29;20371;-75
2021/04/21 12:08:41;;;;;;;20.00;18.40;;;17.50;85.50;;;;;;4890113;29;20144;-74
2021/04/21 12:11:08;;;;;;;20.15;18.25;;;17.80;84.30;;;;;;4894547;29;20087;-75
2021/04/21 12:13:39;;;;;;;19.40;17.58;;;17.90;82.70;;;;;;4908949;29;20060;-77
2021/04/21 12:16:15;;;;;;;20.33;18.50;;;18.00;82.90;;;;;;4893231;29;20075;-77
2021/04/21 12:18:56;;;;;;;20.75;18.90;;;18.00;80.20;;;;;;4878213;29;20058;-78
2021/04/21 12:21:30;;;;;;;20.50;18.90;;;18.30;81.90;;;;;;4908909;29;20226;-76
2021/04/21 12:23:59;;;;;;;21.13;19.33;;;18.20;81.30;;;;;;4861996;29;20426;-74
2021/04/21 12:26:28;;;;;;;18.73;17.25;;;18.40;83.10;;;;;;4878040;29;20251;-75
2021/04/21 12:29:05;;;;;;;18.60;17.00;;;18.40;77.30;;;;;;4893014;29;20099;-73
2021/04/21 12:31:32;;;;;;;18.13;16.83;;;18.10;82.20;;;;;;4885387;29;20053;-74
2021/04/21 12:34:00;;;;;;;18.73;16.98;;;17.90;82.70;;;;;;4886540;29;20160;-74
2021/04/21 12:36:29;;;;;;;19.70;18.20;;;17.70;83.00;;;;;;4888065;29;20063;-72
2021/04/21 12:39:06;;;;;;;20.08;18.38;;;17.60;80.40;;;;;;4875945;29;20045;-78
2021/04/21 12:41:35;;;;;;;23.30;21.40;;;17.50;79.10;;;;;;4908996;29;20464;-75
2021/04/21 12:44:26;;;;;;;21.92;20.00;;;17.60;81.60;;;;;;4874965;29;20072;-74
2021/04/21 12:46:54;;;;;;;21.77;19.98;;;17.40;82.60;;;;;;4892394;29;20049;-76
2021/04/21 12:49:36;;;;;;;22.98;20.98;;;17.00;80.80;;;;;;4897840;29;20088;-74
2021/04/21 12:52:10;;;;;;;20.30;18.20;;;17.30;83.40;;;;;;4898632;29;20520;-76
2021/04/21 12:54:42;;;;;;;20.85;19.13;;;17.50;83.10;;;;;;4893498;29;20408;-76
2021/04/21 12:57:12;;;;;;;21.88;20.02;;;17.30;82.60;;;;;;4893557;29;20053;-73
2021/04/21 12:59:55;;;;;;;22.42;20.40;;;17.20;83.10;;;;;;4893780;29;20068;-75
2021/04/21 13:02:45;;;;;;;22.38;20.48;;;17.20;83.10;;;;;;4875850;29;20751;-76
2021/04/21 13:05:13;;;;;;;21.92;19.83;;;16.80;83.80;;;;;;4892841;29;20105;-73
2021/04/21 13:07:39;;;;;;;23.58;21.40;;;16.50;87.00;;;;;;4892465;29;20067;-76
2021/04/21 13:10:06;;;;;;;23.10;20.67;;;16.50;87.70;;;;;;4893401;29;20056;-75
2021/04/21 13:12:32;;;;;;;23.30;21.02;;;16.40;88.60;;;;;;4875624;29;20061;-75